createdAt,value
2018-11-27T00:01:13.889Z,84.17
2018-11-27T00:03:47.488Z,83.92
2018-11-27T00:06:19.152Z,84.16
2018-11-27T00:08:47.373Z,83.53
2018-11-27T00:11:15.574Z,83.26
2018-11-27T00:13:43.795Z,81.34
2018-11-27T00:16:12.170Z,82.69
2018-11-27T00:18:40.767Z,80.57
2018-11-27T00:21:09.018Z,81.07
2018-11-27T00:23:37.241Z,80.04
2018-11-27T00:26:05.577Z,79.63
2018-11-27T00:28:33.784Z,80.12
2018-11-27T00:31:02.008Z,80.22
2018-11-27T00:33:30.212Z,78.65
2018-11-27T00:36:00.508Z,78.24
2018-11-27T00:38:28.741Z,79.74
2018-11-27T00:40:56.947Z,79.21
2018-11-27T00:43:25.150Z,78.43
2018-11-27T00:45:53.385Z,78.08
2018-11-27T00:48:21.610Z,78.63
2018-11-27T00:50:49.829Z,79.35
2018-11-27T00:53:18.031Z,79.81
2018-11-27T00:55:46.269Z,79.72
2018-11-27T00:58:14.481Z,78.71
2018-11-27T01:00:42.707Z,79.29
2018-11-27T01:03:10.944Z,78.28
2018-11-27T01:05:39.162Z,77.68
2018-11-27T01:08:08.411Z,76.51
2018-11-27T01:10:36.631Z,78.05
2018-11-27T01:13:05.330Z,77.44
2018-11-27T01:15:33.573Z,77.57
2018-11-27T01:18:01.778Z,77.65
2018-11-27T01:20:30.009Z,77.08
2018-11-27T01:22:58.236Z,73.98
2018-11-27T01:25:26.621Z,73.39
2018-11-27T01:27:54.885Z,75.18
2018-11-27T01:30:23.779Z,75.67
2018-11-27T01:32:52.208Z,76.31
2018-11-27T01:35:22.073Z,74.92
2018-11-27T01:37:51.520Z,76.43
2018-11-27T01:40:21.787Z,75.51
2018-11-27T01:42:51.009Z,74.61
2018-11-27T01:45:21.017Z,73.84
2018-11-27T01:47:49.321Z,75.44
2018-11-27T01:50:18.281Z,75.28
2018-11-27T01:52:46.627Z,76.21
2018-11-27T01:55:16.887Z,74.59
2018-11-27T01:57:45.204Z,75.51
2018-11-27T02:00:18.078Z,74.67
2018-11-27T02:02:47.508Z,75.47
2018-11-27T02:05:15.741Z,74.15
2018-11-27T02:07:44.080Z,73.83
2018-11-27T02:10:13.518Z,74.81
2018-11-27T02:12:44.310Z,76.45
2018-11-27T02:15:13.984Z,75.58
2018-11-27T02:17:42.224Z,75.93
2018-11-27T02:20:11.413Z,75.88
2018-11-27T02:22:39.818Z,75.29
2018-11-27T02:25:14.304Z,75.77
2018-11-27T02:27:42.581Z,74.80
2018-11-27T02:30:12.329Z,76.16
2018-11-27T02:32:41.580Z,75.92
2018-11-27T02:35:11.392Z,76.54
2018-11-27T02:37:39.628Z,75.69
2018-11-27T02:40:13.817Z,74.94
2018-11-27T02:42:42.090Z,76.30
2018-11-27T02:45:14.346Z,75.28
2018-11-27T02:47:42.881Z,75.68
2018-11-27T02:50:13.108Z,74.33
2018-11-27T02:52:41.405Z,74.19
2018-11-27T02:55:11.451Z,73.57
2018-11-27T02:57:39.742Z,74.22
2018-11-27T03:00:13.390Z,73.28
2018-11-27T03:02:41.729Z,73.95
2018-11-27T03:05:14.392Z,72.97
2018-11-27T03:07:42.630Z,73.99
2018-11-27T03:10:12.647Z,73.65
2018-11-27T03:12:40.918Z,73.97
2018-11-27T03:15:11.125Z,74.05
2018-11-27T03:17:39.402Z,73.69
2018-11-27T03:20:09.237Z,73.83
2018-11-27T03:22:37.589Z,74.29
2018-11-27T03:25:07.953Z,74.09
2018-11-27T03:27:36.170Z,74.96
2018-11-27T03:30:05.433Z,74.32
2018-11-27T03:32:33.654Z,74.50
2018-11-27T03:35:01.968Z,73.86
2018-11-27T03:37:30.197Z,74.33
2018-11-27T03:39:58.426Z,74.59
2018-11-27T03:42:26.650Z,73.83
2018-11-27T03:44:54.875Z,73.47
2018-11-27T03:47:23.089Z,73.63
2018-11-27T03:49:51.328Z,73.14
2018-11-27T03:52:19.556Z,73.89
2018-11-27T03:54:47.801Z,73.68
2018-11-27T03:57:16.016Z,72.87
2018-11-27T03:59:44.333Z,74.99
2018-11-27T04:02:12.581Z,74.90
2018-11-27T04:04:40.828Z,75.51
2018-11-27T04:07:09.054Z,75.78
2018-11-27T04:09:37.264Z,77.26
2018-11-27T04:12:05.533Z,76.59
2018-11-27T04:14:33.751Z,76.82
2018-11-27T04:17:01.998Z,76.93
2018-11-27T04:19:30.234Z,75.53
2018-11-27T04:21:58.467Z,76.41
2018-11-27T04:24:26.709Z,78.53
2018-11-27T04:26:54.908Z,77.88
2018-11-27T04:29:23.241Z,78.23
2018-11-27T04:31:51.477Z,77.08
2018-11-27T04:34:20.795Z,76.44
2018-11-27T04:36:53.689Z,76.14
2018-11-27T04:39:21.954Z,77.19
2018-11-27T04:41:50.161Z,77.88
2018-11-27T04:44:18.405Z,78.04
2018-11-27T04:46:46.644Z,77.34
2018-11-27T04:49:14.892Z,77.38
2018-11-27T04:51:43.154Z,78.14
2018-11-27T04:54:11.380Z,78.42
2018-11-27T04:56:39.592Z,78.02
2018-11-27T04:59:07.870Z,77.48
2018-11-27T05:01:36.072Z,77.60
2018-11-27T05:04:04.372Z,78.08
2018-11-27T05:06:32.626Z,77.74
2018-11-27T05:09:00.854Z,77.64
2018-11-27T05:11:29.081Z,78.41
2018-11-27T05:13:57.284Z,78.76
2018-11-27T05:16:25.505Z,79.70
2018-11-27T05:18:53.716Z,80.11
2018-11-27T05:21:21.932Z,78.61
2018-11-27T05:23:50.150Z,79.55
2018-11-27T05:26:18.377Z,79.78
2018-11-27T05:28:46.582Z,78.99
2018-11-27T05:31:14.795Z,77.87
2018-11-27T05:33:43.035Z,78.30
2018-11-27T05:36:12.305Z,80.00
2018-11-27T05:38:40.504Z,79.72
2018-11-27T05:41:08.708Z,79.51
2018-11-27T05:43:36.911Z,79.66
2018-11-27T05:46:05.570Z,79.20
2018-11-27T05:48:33.785Z,78.54
2018-11-27T05:51:01.999Z,79.62
2018-11-27T05:53:30.240Z,78.83
2018-11-27T05:55:58.453Z,79.88
2018-11-27T05:58:26.702Z,79.36
2018-11-27T06:00:55.014Z,80.69
2018-11-27T06:03:23.252Z,78.52
2018-11-27T06:05:51.476Z,78.35
2018-11-27T06:08:19.710Z,78.74
2018-11-27T06:10:47.924Z,79.97
2018-11-27T06:13:16.136Z,79.34
2018-11-27T06:15:44.371Z,77.74
2018-11-27T06:18:12.608Z,78.66
2018-11-27T06:20:40.855Z,80.51
2018-11-27T06:23:09.059Z,80.38
2018-11-27T06:25:37.262Z,80.76
2018-11-27T06:28:07.159Z,80.34
2018-11-27T06:30:35.851Z,78.88
2018-11-27T06:33:04.136Z,80.02
2018-11-27T06:35:35.840Z,80.48
2018-11-27T06:38:05.265Z,80.28
2018-11-27T06:40:40.358Z,79.72
2018-11-27T06:43:10.208Z,80.79
2018-11-27T06:45:39.043Z,80.64
2018-11-27T06:48:07.784Z,80.43
2018-11-27T06:50:36.025Z,80.60
2018-11-27T06:53:04.681Z,79.87
2018-11-27T06:55:32.889Z,80.04
2018-11-27T06:58:01.355Z,81.24
2018-11-27T07:00:29.896Z,80.40
2018-11-27T07:02:59.018Z,80.67
2018-11-27T07:05:27.335Z,79.53
2018-11-27T07:07:55.596Z,79.32
2018-11-27T07:10:27.934Z,80.26
2018-11-27T07:12:57.932Z,80.09
2018-11-27T07:15:26.153Z,78.89
2018-11-27T07:17:54.389Z,80.10
2018-11-27T07:20:22.660Z,80.69
2018-11-27T07:22:50.868Z,81.23
2018-11-27T07:25:19.271Z,79.95
2018-11-27T07:27:48.733Z,80.60
2018-11-27T07:30:17.965Z,81.07
2018-11-27T07:32:46.217Z,80.06
2018-11-27T07:35:15.098Z,80.21
2018-11-27T07:37:43.327Z,79.64
2018-11-27T07:40:15.944Z,79.14
2018-11-27T07:42:44.160Z,79.82
2018-11-27T07:45:13.836Z,80.26
2018-11-27T07:47:42.054Z,80.63
2018-11-27T07:50:11.122Z,80.33
2018-11-27T07:52:39.368Z,81.26
2018-11-27T07:55:11.143Z,80.28
2018-11-27T07:57:39.380Z,78.25
2018-11-27T08:00:17.848Z,78.66
2018-11-27T08:02:47.194Z,79.77
2018-11-27T08:05:16.629Z,79.67
2018-11-27T08:07:47.432Z,78.39
2018-11-27T08:10:17.171Z,78.75
2018-11-27T08:12:45.396Z,77.23
2018-11-27T08:15:21.019Z,78.65
2018-11-27T08:17:49.232Z,77.95
2018-11-27T08:20:34.025Z,77.32
2018-11-27T08:23:02.247Z,76.75
2018-11-27T08:25:30.469Z,75.65
2018-11-27T08:27:58.689Z,74.44
2018-11-27T08:30:27.086Z,75.19
2018-11-27T08:32:56.010Z,74.97
2018-11-27T08:35:26.603Z,74.81
2018-11-27T08:37:56.859Z,74.81
2018-11-27T08:40:27.311Z,74.05
2018-11-27T08:42:55.513Z,74.03
2018-11-27T08:45:24.627Z,71.95
2018-11-27T08:47:53.880Z,73.25
2018-11-27T08:50:27.195Z,72.79
2018-11-27T08:52:57.586Z,72.51
2018-11-27T08:55:30.328Z,74.34
2018-11-27T08:58:01.321Z,74.68
2018-11-27T09:00:29.576Z,74.70
2018-11-27T09:03:00.577Z,73.72
2018-11-27T09:05:28.999Z,73.55
2018-11-27T09:07:59.363Z,73.50
2018-11-27T09:10:31.190Z,74.08
2018-11-27T09:13:01.724Z,74.20
2018-11-27T09:15:32.035Z,72.59
2018-11-27T09:18:10.310Z,72.69
2018-11-27T09:20:40.593Z,72.46
2018-11-27T09:23:08.967Z,74.64
2018-11-27T09:25:38.247Z,74.12
2018-11-27T09:28:07.569Z,73.50
2018-11-27T09:30:36.899Z,72.67
2018-11-27T09:33:07.994Z,73.44
2018-11-27T09:35:37.331Z,72.47
2018-11-27T09:38:08.283Z,71.93
2018-11-27T09:40:36.924Z,71.25
2018-11-27T09:43:05.544Z,70.30
2018-11-27T09:45:33.775Z,69.39
2018-11-27T09:48:04.136Z,68.83
2018-11-27T09:50:32.416Z,68.12
2018-11-27T09:53:00.625Z,68.09
2018-11-27T09:55:28.882Z,68.77
2018-11-27T09:57:59.374Z,67.62
2018-11-27T10:00:32.712Z,68.87
2018-11-27T10:03:05.375Z,68.79
2018-11-27T10:05:34.820Z,67.80
2018-11-27T10:08:03.180Z,68.67
2018-11-27T10:10:31.407Z,68.31
2018-11-27T10:12:59.632Z,67.13
2018-11-27T10:15:29.005Z,68.50
2018-11-27T10:18:00.119Z,69.05
2018-11-27T10:20:29.908Z,68.79
2018-11-27T10:22:58.117Z,69.60
2018-11-27T10:25:26.445Z,68.26
2018-11-27T10:27:55.074Z,68.51
2018-11-27T10:30:25.646Z,68.27
2018-11-27T10:32:55.217Z,69.32
2018-11-27T10:35:25.529Z,69.23
2018-11-27T10:37:54.821Z,68.08
2018-11-27T10:40:23.080Z,66.44
2018-11-27T10:42:52.468Z,67.51
2018-11-27T10:45:21.675Z,64.92
2018-11-27T10:47:54.723Z,64.15
2018-11-27T10:50:23.637Z,63.14
2018-11-27T10:52:54.115Z,62.96
2018-11-27T10:55:22.827Z,62.71
2018-11-27T10:57:51.063Z,63.71
2018-11-27T11:00:28.455Z,62.94
2018-11-27T11:04:04.027Z,63.99
2018-11-27T11:06:33.059Z,64.46
2018-11-27T11:09:02.096Z,63.31
2018-11-27T11:11:30.419Z,61.32
2018-11-27T11:13:58.645Z,61.20
2018-11-27T11:16:26.892Z,61.91
2018-11-27T11:18:55.127Z,60.53
2018-11-27T11:21:23.370Z,61.69
2018-11-27T11:23:51.600Z,62.03
2018-11-27T11:26:19.925Z,61.79
2018-11-27T11:28:48.179Z,61.38
2018-11-27T11:31:16.392Z,61.26
2018-11-27T11:33:44.616Z,61.66
2018-11-27T11:36:12.840Z,62.81
2018-11-27T11:38:41.142Z,60.84
2018-11-27T11:41:09.427Z,60.58
2018-11-27T11:43:37.684Z,61.61
2018-11-27T11:46:06.281Z,61.89
2018-11-27T11:48:34.503Z,61.40
2018-11-27T11:51:02.795Z,61.71
2018-11-27T11:53:31.016Z,60.86
2018-11-27T11:55:59.260Z,60.66
2018-11-27T11:58:27.473Z,61.53
2018-11-27T12:00:56.604Z,61.03
2018-11-27T12:03:25.961Z,62.07
2018-11-27T12:05:54.158Z,62.72
2018-11-27T12:08:22.532Z,62.10
2018-11-27T12:10:50.779Z,61.55
2018-11-27T12:13:19.005Z,62.07
2018-11-27T12:15:47.293Z,62.01
2018-11-27T12:18:15.492Z,60.89
2018-11-27T12:20:43.793Z,62.22
2018-11-27T12:23:12.410Z,61.20
2018-11-27T12:25:41.027Z,62.11
2018-11-27T12:28:14.645Z,62.28
2018-11-27T12:30:38.900Z,62.25
2018-11-27T12:33:07.432Z,61.39
2018-11-27T12:35:35.881Z,61.78
2018-11-27T12:38:04.205Z,61.74
2018-11-27T12:40:32.440Z,61.54
2018-11-27T12:43:00.691Z,61.57
2018-11-27T12:45:30.857Z,61.19
2018-11-27T12:48:00.324Z,62.16
2018-11-27T12:50:30.664Z,60.33
2018-11-27T12:52:58.892Z,61.04
2018-11-27T12:55:27.135Z,60.20
2018-11-27T12:57:55.364Z,62.13
2018-11-27T13:00:24.819Z,60.55
2018-11-27T13:02:53.310Z,60.98
2018-11-27T13:05:24.228Z,60.32
2018-11-27T13:07:54.212Z,60.48
2018-11-27T13:10:23.523Z,60.53
2018-11-27T13:12:51.846Z,61.25
2018-11-27T13:15:20.969Z,61.54
2018-11-27T13:17:50.488Z,60.37
2018-11-27T13:20:19.269Z,61.42
2018-11-27T13:22:48.102Z,61.27
2018-11-27T13:25:18.366Z,60.35
2018-11-27T13:27:46.804Z,59.99
2018-11-27T13:30:19.378Z,60.42
2018-11-27T13:32:49.381Z,61.38
2018-11-27T13:35:17.639Z,61.65
2018-11-27T13:37:45.870Z,59.37
2018-11-27T13:40:14.433Z,59.18
2018-11-27T13:42:42.739Z,60.43
2018-11-27T13:45:12.350Z,59.94
2018-11-27T13:47:40.760Z,59.31
2018-11-27T13:50:11.302Z,60.30
2018-11-27T13:52:39.754Z,61.05
2018-11-27T13:55:13.500Z,62.20
2018-11-27T13:57:41.761Z,61.27
2018-11-27T14:00:12.341Z,61.16
2018-11-27T14:02:40.767Z,62.16
2018-11-27T14:05:11.850Z,61.25
2018-11-27T14:07:40.080Z,60.24
2018-11-27T14:10:10.017Z,60.52
2018-11-27T14:12:38.279Z,60.39
2018-11-27T14:15:13.348Z,61.47
2018-11-27T14:17:41.584Z,60.12
2018-11-27T14:20:09.820Z,61.18
2018-11-27T14:22:38.975Z,61.24
2018-11-27T14:25:08.948Z,59.76
2018-11-27T14:27:37.229Z,61.99
2018-11-27T14:30:12.336Z,60.73
2018-11-27T14:32:40.556Z,60.71
2018-11-27T14:35:08.825Z,61.83
2018-11-27T14:37:37.025Z,60.66
2018-11-27T14:40:10.828Z,61.83
2018-11-27T14:42:39.085Z,61.40
2018-11-27T14:45:10.767Z,60.99
2018-11-27T14:47:38.995Z,61.69
2018-11-27T14:50:09.392Z,61.46
2018-11-27T14:52:37.664Z,62.54
2018-11-27T14:55:08.261Z,62.02
2018-11-27T14:57:36.494Z,63.30
2018-11-27T15:00:05.536Z,62.12
2018-11-27T15:02:34.999Z,63.37
2018-11-27T15:05:01.976Z,62.30
2018-11-27T15:07:30.171Z,61.73
2018-11-27T15:09:58.394Z,62.48
2018-11-27T15:12:26.608Z,61.79
2018-11-27T15:15:00.680Z,61.90
2018-11-27T15:17:28.937Z,61.75
2018-11-27T15:19:57.167Z,62.03
2018-11-27T15:22:25.375Z,61.81
2018-11-27T15:24:53.614Z,62.19
2018-11-27T15:27:21.849Z,61.78
2018-11-27T15:29:50.061Z,62.69
2018-11-27T15:32:20.359Z,62.33
2018-11-27T15:34:48.556Z,63.43
2018-11-27T15:37:16.885Z,62.96
2018-11-27T15:39:45.144Z,62.16
2018-11-27T15:42:13.377Z,64.50
2018-11-27T15:44:42.056Z,65.30
2018-11-27T15:47:12.276Z,66.45
2018-11-27T15:49:40.564Z,67.14
2018-11-27T15:52:09.851Z,66.60
2018-11-27T15:54:38.045Z,67.51
2018-11-27T15:57:06.264Z,68.74
2018-11-27T15:59:34.508Z,68.06
2018-11-27T16:02:03.816Z,68.42
2018-11-27T16:04:33.090Z,69.29
2018-11-27T16:07:01.371Z,68.43
2018-11-27T16:09:29.581Z,70.19
2018-11-27T16:11:57.912Z,69.10
2018-11-27T16:14:26.176Z,70.07
2018-11-27T16:16:54.451Z,69.31
2018-11-27T16:19:22.792Z,69.67
2018-11-27T16:21:52.044Z,70.49
2018-11-27T16:24:20.344Z,69.73
2018-11-27T16:26:48.600Z,69.28
2018-11-27T16:29:17.925Z,69.21
2018-11-27T16:31:46.164Z,68.90
2018-11-27T16:34:15.452Z,69.74
2018-11-27T16:36:43.711Z,70.53
2018-11-27T16:39:12.361Z,70.33
2018-11-27T16:41:42.697Z,70.11
2018-11-27T16:44:10.921Z,70.66
2018-11-27T16:46:39.141Z,71.51
2018-11-27T16:49:07.339Z,71.21
2018-11-27T16:51:35.671Z,70.39
2018-11-27T16:54:03.941Z,70.34
2018-11-27T16:56:32.201Z,71.43
2018-11-27T16:59:00.442Z,70.65
2018-11-27T17:01:29.688Z,70.38
2018-11-27T17:03:57.930Z,70.53
2018-11-27T17:06:26.173Z,70.43
2018-11-27T17:08:54.425Z,71.54
2018-11-27T17:11:24.982Z,71.73
2018-11-27T17:13:53.236Z,71.24
2018-11-27T17:16:21.484Z,71.72
2018-11-27T17:18:50.812Z,71.19
2018-11-27T17:21:19.040Z,70.64
2018-11-27T17:23:47.357Z,71.92
2018-11-27T17:26:16.676Z,71.83
2018-11-27T17:28:45.980Z,72.62
2018-11-27T17:31:15.435Z,72.61
2018-11-27T17:33:46.649Z,72.43
2018-11-27T17:36:14.972Z,72.34
2018-11-27T17:38:43.300Z,72.31
2018-11-27T17:41:12.657Z,71.80
2018-11-27T17:43:40.936Z,71.43
2018-11-27T17:46:09.225Z,72.82
2018-11-27T17:48:37.621Z,72.25
2018-11-27T17:51:06.784Z,71.80
2018-11-27T17:53:35.092Z,71.46
2018-11-27T17:56:05.506Z,73.03
2018-11-27T17:58:33.784Z,73.04
2018-11-27T18:01:02.107Z,73.71
2018-11-27T18:03:30.364Z,72.18
2018-11-27T18:05:58.714Z,73.15
2018-11-27T18:08:26.989Z,72.23
2018-11-27T18:10:55.203Z,72.35
2018-11-27T18:13:23.613Z,71.70
2018-11-27T18:15:51.963Z,72.16
2018-11-27T18:18:20.276Z,72.42
2018-11-27T18:20:48.614Z,72.02
2018-11-27T18:23:17.965Z,72.06
2018-11-27T18:25:46.206Z,71.73
2018-11-27T18:28:14.446Z,72.08
2018-11-27T18:30:42.688Z,71.56
2018-11-27T18:33:11.998Z,71.78
2018-11-27T18:35:40.259Z,72.35
2018-11-27T18:38:08.495Z,71.28
2018-11-27T18:40:37.760Z,72.82
2018-11-27T18:43:06.313Z,71.59
2018-11-27T18:45:34.642Z,71.55
2018-11-27T18:48:02.960Z,72.20
2018-11-27T18:50:33.936Z,71.68
2018-11-27T18:53:02.228Z,71.80
2018-11-27T18:55:31.500Z,71.83
2018-11-27T18:58:03.299Z,73.08
2018-11-27T19:00:33.459Z,72.61
2018-11-27T19:03:01.714Z,72.68
2018-11-27T19:05:29.961Z,73.14
2018-11-27T19:07:58.214Z,72.96
2018-11-27T19:10:32.548Z,73.06
2018-11-27T19:13:01.144Z,73.54
2018-11-27T19:15:32.147Z,72.69
2018-11-27T19:18:02.129Z,72.81
2018-11-27T19:20:30.420Z,73.12
2018-11-27T19:22:58.735Z,73.32
2018-11-27T19:25:27.003Z,72.49
2018-11-27T19:27:56.308Z,73.51
2018-11-27T19:30:32.108Z,73.23
2018-11-27T19:32:56.947Z,74.04
2018-11-27T19:35:25.636Z,73.67
2018-11-27T19:37:53.456Z,72.55
2018-11-27T19:40:25.706Z,74.20
2018-11-27T19:42:53.949Z,73.07
2018-11-27T19:45:23.816Z,73.41
2018-11-27T19:47:52.306Z,74.62
2018-11-27T19:50:20.639Z,73.68
2018-11-27T19:52:50.365Z,73.58
2018-11-27T19:55:20.667Z,73.33
2018-11-27T19:57:48.916Z,73.49
2018-11-27T20:00:22.239Z,73.94
2018-11-27T20:02:50.652Z,73.27
2018-11-27T20:05:20.491Z,74.01
2018-11-27T20:07:55.527Z,75.13
2018-11-27T20:10:24.959Z,75.85
2018-11-27T20:12:54.264Z,76.58
2018-11-27T20:15:25.158Z,76.61
2018-11-27T20:17:53.873Z,77.70
2018-11-27T20:20:25.196Z,77.68
2018-11-27T20:22:54.364Z,76.91
2018-11-27T20:25:23.353Z,77.09
2018-11-27T20:27:52.897Z,77.46
2018-11-27T20:30:23.400Z,77.26
2018-11-27T20:32:55.721Z,77.91
2018-11-27T20:35:24.031Z,76.87
2018-11-27T20:37:53.347Z,78.05
2018-11-27T20:40:21.607Z,77.91
2018-11-27T20:42:50.033Z,78.00
2018-11-27T20:45:19.815Z,78.69
2018-11-27T20:47:49.895Z,78.56
2018-11-27T20:50:20.327Z,77.86
2018-11-27T20:52:48.631Z,78.52
2018-11-27T20:55:21.579Z,78.40
2018-11-27T20:57:58.676Z,78.67
2018-11-27T21:00:29.862Z,78.39
2018-11-27T21:02:59.496Z,78.67
2018-11-27T21:05:27.774Z,78.17
2018-11-27T21:07:56.055Z,78.81
2018-11-27T21:10:24.306Z,77.69
2018-11-27T21:12:54.601Z,77.83
2018-11-27T21:15:22.875Z,76.88
2018-11-27T21:17:51.108Z,77.37
2018-11-27T21:20:19.642Z,77.15
2018-11-27T21:22:47.623Z,77.28
2018-11-27T21:25:18.932Z,76.97
2018-11-27T21:27:49.948Z,76.50
2018-11-27T21:30:18.699Z,76.56
2018-11-27T21:32:46.956Z,75.95
2018-11-27T21:35:16.611Z,76.13
2018-11-27T21:37:44.877Z,76.53
2018-11-27T21:40:15.264Z,76.80
2018-11-27T21:42:43.591Z,76.24
2018-11-27T21:45:17.131Z,75.84
2018-11-27T21:47:45.706Z,75.95
2018-11-27T21:50:15.282Z,76.17
2018-11-27T21:52:43.514Z,75.92
2018-11-27T21:55:13.740Z,76.12
2018-11-27T21:57:45.358Z,75.86
2018-11-27T22:00:16.558Z,76.23
2018-11-27T22:02:44.978Z,76.41
2018-11-27T22:05:13.586Z,77.09
2018-11-27T22:07:42.028Z,77.31
2018-11-27T22:10:15.693Z,77.38
2018-11-27T22:12:45.147Z,77.42
2018-11-27T22:15:25.104Z,77.73
2018-11-27T22:17:53.367Z,77.55
2018-11-27T22:20:21.796Z,77.35
2018-11-27T22:22:49.934Z,76.87
2018-11-27T22:25:18.175Z,77.06
2018-11-27T22:27:46.411Z,77.63
2018-11-27T22:30:19.525Z,77.49
2018-11-27T22:32:48.891Z,77.00
2018-11-27T22:35:17.137Z,76.93
2018-11-27T22:37:47.530Z,78.11
2018-11-27T22:40:17.781Z,78.30
2018-11-27T22:42:47.464Z,78.29
2018-11-27T22:45:27.789Z,78.17
2018-11-27T22:47:56.166Z,78.12
2018-11-27T22:50:24.515Z,77.60
2018-11-27T22:52:52.803Z,77.46
2018-11-27T22:55:21.052Z,76.93
2018-11-27T22:57:49.375Z,77.50
2018-11-27T23:00:22.815Z,77.47
2018-11-27T23:02:51.070Z,77.56
2018-11-27T23:05:20.118Z,78.30
2018-11-27T23:07:49.436Z,78.01
2018-11-27T23:10:18.744Z,78.14
2018-11-27T23:13:00.348Z,78.22
2018-11-27T23:15:31.359Z,78.89
2018-11-27T23:18:00.405Z,78.79
2018-11-27T23:20:29.519Z,78.48
2018-11-27T23:22:58.619Z,79.09
2018-11-27T23:25:29.792Z,78.20
2018-11-27T23:27:59.082Z,78.83
2018-11-27T23:30:28.031Z,78.94
2018-11-27T23:32:57.108Z,79.40
2018-11-27T23:35:26.200Z,79.17
2018-11-27T23:37:55.359Z,78.70
2018-11-27T23:40:32.000Z,78.80
2018-11-27T23:43:01.801Z,79.33
2018-11-27T23:45:30.702Z,79.31
2018-11-27T23:48:02.782Z,79.93
2018-11-27T23:50:31.483Z,80.10
2018-11-27T23:53:00.436Z,80.18
2018-11-27T23:55:29.723Z,80.66
2018-11-27T23:57:59.922Z,81.24
